createdAt,value
2018-11-12T00:02:22.215Z,96.20
2018-11-12T00:04:50.560Z,99.80
2018-11-12T00:07:18.788Z,93.40
2018-11-12T00:09:47.043Z,92.80
2018-11-12T00:12:15.255Z,92.90
2018-11-12T00:14:43.466Z,91.60
2018-11-12T00:17:11.699Z,91.80
2018-11-12T00:19:40.672Z,91.30
2018-11-12T00:22:09.734Z,90.90
2018-11-12T00:24:37.977Z,91.10
2018-11-12T00:27:06.236Z,90.90
2018-11-12T00:29:35.213Z,91.70
2018-11-12T00:32:04.273Z,91.10
2018-11-12T00:34:32.501Z,91.20
2018-11-12T00:37:01.539Z,95.40
2018-11-12T00:39:29.792Z,95.60
2018-11-12T00:41:58.049Z,99.70
2018-11-12T00:44:27.021Z,97.40
2018-11-12T00:46:56.022Z,99.90
2018-11-12T00:49:24.997Z,97.20
2018-11-12T00:51:53.221Z,98.60
2018-11-12T00:54:21.432Z,95.20
2018-11-12T00:56:49.683Z,99.90
2018-11-12T00:59:17.888Z,95.10
2018-11-12T01:01:46.139Z,99.90
2018-11-12T01:04:14.460Z,94.50
2018-11-12T01:06:43.398Z,93.50
2018-11-12T01:09:11.598Z,93.40
2018-11-12T01:11:39.823Z,92.70
2018-11-12T01:14:08.792Z,94.90
2018-11-12T01:16:37.026Z,94.90
2018-11-12T01:19:05.287Z,93.20
2018-11-12T01:21:34.253Z,91.10
2018-11-12T01:24:02.499Z,91.40
2018-11-12T01:26:30.717Z,90.80
2018-11-12T01:28:59.747Z,92.20
2018-11-12T01:31:27.964Z,92.10
2018-11-12T01:33:56.188Z,91.20
2018-11-12T01:36:24.440Z,91.10
2018-11-12T01:38:53.426Z,90.70
2018-11-12T01:41:22.444Z,91.40
2018-11-12T01:43:50.722Z,91.60
2018-11-12T01:46:19.699Z,90.40
2018-11-12T01:48:47.903Z,90.40
2018-11-12T01:51:16.122Z,90.70
2018-11-12T01:53:44.352Z,90.40
2018-11-12T01:56:12.573Z,90.30
2018-11-12T01:58:40.840Z,91.70
2018-11-12T02:01:09.170Z,90.80
2018-11-12T02:03:38.192Z,91.20
2018-11-12T02:06:06.431Z,91.40
2018-11-12T02:08:35.435Z,90.70
2018-11-12T02:11:03.653Z,90.90
2018-11-12T02:13:31.961Z,90.50
2018-11-12T02:16:00.147Z,90.50
2018-11-12T02:18:29.133Z,90.60
2018-11-12T02:20:57.353Z,90.60
2018-11-12T02:23:25.559Z,89.10
2018-11-12T02:25:53.775Z,88.90
2018-11-12T02:28:22.757Z,90.70
2018-11-12T02:30:51.011Z,91.70
2018-11-12T02:33:20.079Z,90.80
2018-11-12T02:35:48.211Z,94.60
2018-11-12T02:38:17.231Z,90.20
2018-11-12T02:40:45.474Z,90.30
2018-11-12T02:43:13.727Z,90.10
2018-11-12T02:45:41.977Z,91.70
2018-11-12T02:48:10.238Z,90.40
2018-11-12T02:50:38.476Z,90.70
2018-11-12T02:53:06.738Z,92.20
2018-11-12T02:55:34.974Z,90.70
2018-11-12T02:58:03.209Z,90.60
2018-11-12T03:00:31.444Z,90.10
2018-11-12T03:02:59.651Z,89.10
2018-11-12T03:05:27.858Z,90.00
2018-11-12T03:07:56.079Z,90.00
2018-11-12T03:10:24.336Z,89.30
2018-11-12T03:12:52.586Z,90.40
2018-11-12T03:15:21.537Z,90.70
2018-11-12T03:17:49.823Z,90.90
2018-11-12T03:20:18.027Z,93.20
2018-11-12T03:22:47.014Z,94.50
2018-11-12T03:25:16.025Z,94.50
2018-11-12T03:27:45.088Z,89.60
2018-11-12T03:30:14.036Z,91.50
2018-11-12T03:32:42.240Z,91.70
2018-11-12T03:35:10.437Z,90.70
2018-11-12T03:37:38.698Z,98.20
2018-11-12T03:40:06.901Z,93.40
2018-11-12T03:42:35.885Z,98.80
2018-11-12T03:45:04.137Z,99.20
2018-11-12T03:47:32.399Z,94.10
2018-11-12T03:50:00.576Z,91.70
2018-11-12T03:52:28.838Z,91.70
2018-11-12T03:54:57.034Z,91.60
2018-11-12T03:57:25.304Z,92.70
2018-11-12T03:59:53.532Z,91.10
2018-11-12T04:02:22.520Z,94.10
2018-11-12T04:04:51.484Z,93.30
2018-11-12T04:07:19.744Z,93.70
2018-11-12T04:09:48.012Z,91.40
2018-11-12T04:12:16.233Z,90.60
2018-11-12T04:14:44.442Z,91.80
2018-11-12T04:17:12.705Z,92.60
2018-11-12T04:19:40.906Z,90.60
2018-11-12T04:22:09.160Z,91.40
2018-11-12T04:24:38.166Z,91.90
2018-11-12T04:27:06.372Z,91.80
2018-11-12T04:29:34.617Z,92.00
2018-11-12T04:32:02.876Z,92.20
2018-11-12T04:34:31.840Z,93.90
2018-11-12T04:37:00.096Z,93.90
2018-11-12T04:39:28.348Z,93.10
2018-11-12T04:41:56.569Z,96.40
2018-11-12T04:44:24.768Z,93.50
2018-11-12T04:46:53.748Z,97.50
2018-11-12T04:49:21.998Z,97.80
2018-11-12T04:51:50.210Z,96.20
2018-11-12T04:54:18.416Z,91.10
2018-11-12T04:56:46.667Z,91.90
2018-11-12T04:59:14.970Z,92.30
2018-11-12T05:01:43.117Z,92.50
2018-11-12T05:04:11.320Z,93.20
2018-11-12T05:06:39.508Z,91.60
2018-11-12T05:09:07.781Z,91.20
2018-11-12T05:11:36.025Z,94.70
2018-11-12T05:14:04.290Z,95.80
2018-11-12T05:16:32.553Z,92.80
2018-11-12T05:19:01.522Z,91.50
2018-11-12T05:21:29.726Z,91.60
2018-11-12T05:23:57.981Z,91.40
2018-11-12T05:26:26.189Z,92.10
2018-11-12T05:28:54.460Z,92.30
2018-11-12T05:31:22.656Z,94.10
2018-11-12T05:33:51.636Z,92.10
2018-11-12T05:36:19.892Z,92.00
2018-11-12T05:38:48.149Z,91.70
2018-11-12T05:41:16.344Z,96.50
2018-11-12T05:43:44.610Z,96.80
2018-11-12T05:46:12.813Z,94.60
2018-11-12T05:48:41.030Z,93.30
2018-11-12T05:51:09.239Z,92.10
2018-11-12T05:53:37.458Z,94.90
2018-11-12T05:56:06.422Z,91.80
2018-11-12T05:58:34.647Z,92.10
2018-11-12T06:01:02.891Z,91.40
2018-11-12T06:03:31.168Z,93.00
2018-11-12T06:05:59.369Z,91.30
2018-11-12T06:08:27.649Z,90.10
2018-11-12T06:10:56.604Z,92.10
2018-11-12T06:13:24.821Z,92.10
2018-11-12T06:15:53.028Z,94.90
2018-11-12T06:18:21.290Z,93.40
2018-11-12T06:20:49.499Z,94.70
2018-11-12T06:23:17.986Z,92.10
2018-11-12T06:25:46.215Z,91.30
2018-11-12T06:28:14.431Z,91.30
2018-11-12T06:30:42.682Z,92.70
2018-11-12T06:33:10.942Z,95.70
2018-11-12T06:35:39.179Z,93.30
2018-11-12T06:38:07.447Z,92.60
2018-11-12T06:40:35.641Z,94.20
2018-11-12T06:43:04.732Z,95.30
2018-11-12T06:45:32.923Z,95.20
2018-11-12T06:48:01.118Z,94.90
2018-11-12T06:50:29.337Z,95.80
2018-11-12T06:52:57.709Z,95.60
2018-11-12T06:55:25.772Z,93.10
2018-11-12T06:57:53.987Z,99.40
2018-11-12T07:00:22.235Z,93.40
2018-11-12T07:02:50.455Z,94.70
2018-11-12T07:05:19.469Z,90.80
2018-11-12T07:07:47.701Z,90.80
2018-11-12T07:10:15.953Z,90.70
2018-11-12T07:12:44.194Z,91.30
2018-11-12T07:15:12.451Z,91.20
2018-11-12T07:17:41.438Z,90.70
2018-11-12T07:20:10.457Z,90.80
2018-11-12T07:22:39.429Z,90.60
2018-11-12T07:25:08.434Z,90.60
2018-11-12T07:27:36.616Z,90.70
2018-11-12T07:30:04.877Z,91.70
2018-11-12T07:32:33.089Z,91.40
2018-11-12T07:35:01.337Z,91.90
2018-11-12T07:37:29.571Z,91.80
2018-11-12T07:39:57.785Z,91.80
2018-11-12T07:42:25.998Z,92.70
2018-11-12T07:44:54.248Z,92.90
2018-11-12T07:47:23.249Z,92.50
2018-11-12T07:49:51.502Z,92.60
2018-11-12T07:52:20.484Z,92.80
2018-11-12T07:54:48.739Z,92.80
2018-11-12T07:57:17.008Z,99.90
2018-11-12T07:59:45.266Z,96.30
2018-11-12T08:02:13.511Z,99.90
2018-11-12T08:04:42.530Z,98.70
2018-11-12T08:07:10.896Z,98.80
2018-11-12T08:09:39.936Z,99.90
2018-11-12T08:12:08.149Z,99.90
2018-11-12T08:14:36.430Z,99.90
2018-11-12T08:17:04.678Z,99.90
2018-11-12T08:19:32.882Z,99.90
2018-11-12T08:22:01.906Z,99.90
2018-11-12T08:24:30.189Z,99.90
2018-11-12T08:26:59.182Z,99.90
2018-11-12T08:29:27.402Z,99.90
2018-11-12T08:31:55.625Z,99.90
2018-11-12T08:34:23.897Z,99.90
2018-11-12T08:36:52.064Z,99.90
2018-11-12T08:39:20.360Z,99.90
2018-11-12T08:41:48.522Z,99.90
2018-11-12T08:44:16.748Z,99.90
2018-11-12T08:46:44.962Z,99.90
2018-11-12T08:49:14.185Z,99.90
2018-11-12T08:51:42.264Z,99.90
2018-11-12T08:54:10.484Z,99.90
2018-11-12T08:56:38.691Z,99.90
2018-11-12T08:59:06.983Z,99.90
2018-11-12T09:01:35.131Z,99.90
2018-11-12T09:04:04.210Z,99.80
2018-11-12T09:06:32.385Z,99.60
2018-11-12T09:09:00.651Z,99.90
2018-11-12T09:11:28.877Z,99.40
2018-11-12T09:13:57.131Z,98.60
2018-11-12T09:16:26.103Z,98.30
2018-11-12T09:18:54.386Z,98.30
2018-11-12T09:21:22.624Z,97.70
2018-11-12T09:23:50.904Z,96.90
2018-11-12T09:26:19.109Z,97.50
2018-11-12T09:28:47.405Z,97.10
2018-11-12T09:31:16.945Z,96.90
2018-11-12T09:33:43.928Z,96.90
2018-11-12T09:36:12.105Z,96.90
2018-11-12T09:38:40.399Z,96.50
2018-11-12T09:41:08.645Z,94.20
2018-11-12T09:43:36.923Z,95.80
2018-11-12T09:46:05.139Z,94.10
2018-11-12T09:48:33.406Z,94.90
2018-11-12T09:51:01.620Z,92.70
2018-11-12T09:53:29.936Z,94.90
2018-11-12T09:55:58.219Z,94.40
2018-11-12T09:58:27.261Z,85.20
2018-11-12T10:00:56.604Z,82.10
2018-11-12T10:03:25.904Z,82.10
2018-11-12T10:05:54.633Z,90.10
2018-11-12T10:08:23.340Z,89.90
2018-11-12T10:10:52.048Z,93.00
2018-11-12T10:13:21.416Z,91.20
2018-11-12T10:15:50.272Z,91.50
2018-11-12T10:18:15.574Z,93.20
2018-11-12T10:20:43.780Z,78.20
2018-11-12T10:23:12.785Z,70.20
2018-11-12T10:25:41.818Z,86.40
2018-11-12T10:28:10.068Z,86.60
2018-11-12T10:30:39.032Z,75.20
2018-11-12T10:33:07.304Z,73.10
2018-11-12T10:35:35.557Z,81.00
2018-11-12T10:38:03.781Z,80.80
2018-11-12T10:40:32.762Z,64.50
2018-11-12T10:43:02.561Z,63.10
2018-11-12T10:45:30.761Z,64.00
2018-11-12T10:47:59.814Z,71.00
2018-11-12T10:50:28.749Z,65.10
2018-11-12T10:52:57.779Z,70.20
2018-11-12T10:55:26.174Z,69.50
2018-11-12T10:57:55.022Z,62.50
2018-11-12T11:00:24.034Z,57.90
2018-11-12T11:02:52.304Z,57.90
2018-11-12T11:05:21.253Z,70.50
2018-11-12T11:07:49.532Z,70.20
2018-11-12T11:10:17.746Z,69.30
2018-11-12T11:12:46.777Z,57.80
2018-11-12T11:15:15.044Z,57.30
2018-11-12T11:17:43.324Z,55.60
2018-11-12T11:20:11.572Z,55.20
2018-11-12T11:22:39.815Z,54.20
2018-11-12T11:25:08.068Z,53.60
2018-11-12T11:27:36.273Z,56.30
2018-11-12T11:30:05.307Z,62.80
2018-11-12T11:32:33.538Z,62.60
2018-11-12T11:35:01.821Z,55.40
2018-11-12T11:37:30.079Z,61.30
2018-11-12T11:39:58.344Z,55.70
2018-11-12T11:42:26.600Z,54.50
2018-11-12T11:44:54.842Z,57.90
2018-11-12T11:47:23.968Z,63.50
2018-11-12T11:49:52.079Z,63.00
2018-11-12T11:52:20.362Z,57.10
2018-11-12T11:54:48.623Z,55.80
2018-11-12T11:57:16.958Z,54.30
2018-11-12T11:59:45.896Z,53.30
2018-11-12T12:02:14.172Z,53.00
2018-11-12T12:04:42.367Z,49.90
2018-11-12T12:07:10.616Z,51.40
2018-11-12T12:09:38.843Z,46.70
2018-11-12T12:12:07.056Z,49.50
2018-11-12T12:14:35.286Z,51.90
2018-11-12T12:17:03.540Z,45.50
2018-11-12T12:19:31.772Z,43.50
2018-11-12T12:22:00.051Z,49.30
2018-11-12T12:24:28.364Z,41.00
2018-11-12T12:26:56.532Z,40.10
2018-11-12T12:29:24.805Z,41.40
2018-11-12T12:31:53.010Z,45.40
2018-11-12T12:34:21.274Z,47.20
2018-11-12T12:36:49.535Z,47.40
2018-11-12T12:39:18.509Z,48.10
2018-11-12T12:41:46.722Z,48.20
2018-11-12T12:44:14.987Z,49.00
2018-11-12T12:46:43.248Z,47.00
2018-11-12T12:49:11.539Z,43.90
2018-11-12T12:51:39.841Z,48.10
2018-11-12T12:54:08.768Z,45.80
2018-11-12T12:56:37.740Z,47.30
2018-11-12T12:59:06.744Z,49.10
2018-11-12T13:01:35.845Z,48.80
2018-11-12T13:04:04.062Z,48.70
2018-11-12T13:06:32.345Z,51.40
2018-11-12T13:09:01.343Z,50.10
2018-11-12T13:11:29.547Z,49.90
2018-11-12T13:13:57.872Z,51.00
2018-11-12T13:16:26.019Z,52.30
2018-11-12T13:18:55.015Z,48.80
2018-11-12T13:21:24.064Z,50.00
2018-11-12T13:23:52.220Z,50.00
2018-11-12T13:26:20.484Z,50.30
2018-11-12T13:28:48.660Z,51.10
2018-11-12T13:31:16.876Z,53.90
2018-11-12T13:33:45.121Z,53.40
2018-11-12T13:36:13.372Z,54.00
2018-11-12T13:38:42.380Z,54.40
2018-11-12T13:41:11.369Z,54.90
2018-11-12T13:43:39.677Z,54.80
2018-11-12T13:46:07.931Z,52.30
2018-11-12T13:48:36.958Z,55.00
2018-11-12T13:51:05.151Z,55.00
2018-11-12T13:53:33.393Z,53.80
2018-11-12T13:56:01.654Z,54.30
2018-11-12T13:58:29.885Z,55.30
2018-11-12T14:00:58.104Z,55.10
2018-11-12T14:03:26.317Z,55.30
2018-11-12T14:05:54.579Z,56.50
2018-11-12T14:08:22.797Z,56.10
2018-11-12T14:10:51.039Z,56.20
2018-11-12T14:13:20.177Z,57.30
2018-11-12T14:15:48.451Z,57.00
2018-11-12T14:18:16.671Z,57.20
2018-11-12T14:20:44.923Z,57.00
2018-11-12T14:23:13.145Z,56.70
2018-11-12T14:25:41.412Z,56.60
2018-11-12T14:28:09.663Z,57.20
2018-11-12T14:30:37.866Z,57.60
2018-11-12T14:33:06.183Z,57.60
2018-11-12T14:35:34.381Z,57.40
2018-11-12T14:38:02.603Z,57.60
2018-11-12T14:40:30.824Z,57.40
2018-11-12T14:42:59.852Z,57.20
2018-11-12T14:45:28.061Z,57.30
2018-11-12T14:47:56.274Z,57.60
2018-11-12T14:50:25.282Z,58.00
2018-11-12T14:52:54.271Z,57.90
2018-11-12T14:55:23.252Z,57.80
2018-11-12T14:57:52.278Z,58.30
2018-11-12T15:00:20.552Z,58.30
2018-11-12T15:02:49.520Z,57.30
2018-11-12T15:05:18.531Z,58.10
2018-11-12T15:07:47.498Z,58.60
2018-11-12T15:10:15.729Z,58.70
2018-11-12T15:12:43.951Z,58.10
2018-11-12T15:15:12.261Z,58.90
2018-11-12T15:17:40.426Z,58.70
2018-11-12T15:20:09.420Z,58.70
2018-11-12T15:22:37.664Z,58.70
2018-11-12T15:25:05.910Z,59.00
2018-11-12T15:27:34.156Z,58.90
2018-11-12T15:30:03.176Z,58.90
2018-11-12T15:32:31.392Z,58.90
2018-11-12T15:34:59.638Z,58.90
2018-11-12T15:37:27.922Z,59.50
2018-11-12T15:39:56.124Z,59.30
2018-11-12T15:42:24.347Z,59.40
2018-11-12T15:44:52.624Z,59.60
2018-11-12T15:47:20.909Z,59.70
2018-11-12T15:49:49.147Z,59.60
2018-11-12T15:52:18.184Z,59.60
2018-11-12T15:54:46.390Z,59.60
2018-11-12T15:57:14.758Z,59.70
2018-11-12T15:59:42.930Z,59.60
2018-11-12T16:02:11.126Z,60.30
2018-11-12T16:04:39.412Z,60.10
2018-11-12T16:07:07.639Z,60.10
2018-11-12T16:09:35.900Z,60.90
2018-11-12T16:12:04.177Z,60.60
2018-11-12T16:14:32.355Z,59.80
2018-11-12T16:17:00.596Z,60.10
2018-11-12T16:19:28.858Z,59.80
2018-11-12T16:21:57.074Z,59.70
2018-11-12T16:24:25.330Z,60.40
2018-11-12T16:26:53.550Z,59.90
2018-11-12T16:29:21.819Z,60.70
2018-11-12T16:31:50.042Z,60.40
2018-11-12T16:34:18.302Z,59.80
2018-11-12T16:36:46.518Z,59.70
2018-11-12T16:39:14.773Z,59.80
2018-11-12T16:41:43.084Z,59.90
2018-11-12T16:44:11.324Z,59.70
2018-11-12T16:46:39.581Z,60.60
2018-11-12T16:49:07.884Z,60.80
2018-11-12T16:51:36.123Z,61.70
2018-11-12T16:54:04.381Z,60.50
2018-11-12T16:56:32.587Z,60.30
2018-11-12T16:59:00.806Z,60.40
2018-11-12T17:01:29.842Z,61.20
2018-11-12T17:03:58.789Z,60.90
2018-11-12T17:06:27.819Z,61.00
2018-11-12T17:08:56.048Z,61.20
2018-11-12T17:11:24.877Z,60.80
2018-11-12T17:13:53.104Z,61.00
2018-11-12T17:16:21.327Z,61.00
2018-11-12T17:18:49.547Z,60.70
2018-11-12T17:21:17.815Z,60.80
2018-11-12T17:23:46.078Z,60.90
2018-11-12T17:26:14.329Z,61.70
2018-11-12T17:28:43.365Z,62.70
2018-11-12T17:31:11.633Z,62.40
2018-11-12T17:33:39.872Z,62.40
2018-11-12T17:36:08.876Z,61.90
2018-11-12T17:38:37.106Z,62.00
2018-11-12T17:41:05.389Z,63.60
2018-11-12T17:43:33.630Z,63.00
2018-11-12T17:46:01.897Z,63.20
2018-11-12T17:48:30.147Z,63.80
2018-11-12T17:50:59.153Z,62.80
2018-11-12T17:53:27.426Z,62.20
2018-11-12T17:55:57.671Z,61.70
2018-11-12T17:58:25.878Z,62.50
2018-11-12T18:00:54.139Z,62.60
2018-11-12T18:03:22.402Z,62.00
2018-11-12T18:05:50.646Z,63.10
2018-11-12T18:08:19.649Z,67.00
2018-11-12T18:10:47.906Z,67.00
2018-11-12T18:13:16.189Z,64.40
2018-11-12T18:15:45.159Z,66.20
2018-11-12T18:18:13.461Z,66.20
2018-11-12T18:20:43.185Z,63.50
2018-11-12T18:23:12.219Z,63.40
2018-11-12T18:25:40.437Z,63.40
2018-11-12T18:28:09.463Z,65.70
2018-11-12T18:30:37.917Z,65.60
2018-11-12T18:33:05.923Z,72.00
2018-11-12T18:35:34.205Z,65.60
2018-11-12T18:38:02.508Z,64.60
2018-11-12T18:40:30.688Z,64.50
2018-11-12T18:42:58.922Z,63.90
2018-11-12T18:45:27.143Z,63.30
2018-11-12T18:47:55.407Z,63.90
2018-11-12T18:50:24.388Z,64.20
2018-11-12T18:52:52.599Z,63.90
2018-11-12T18:55:20.817Z,63.70
2018-11-12T18:57:49.105Z,64.60
2018-11-12T19:00:17.396Z,65.70
2018-11-12T19:02:45.665Z,65.10
2018-11-12T19:05:14.027Z,70.30
2018-11-12T19:07:42.201Z,70.30
2018-11-12T19:10:10.424Z,80.10
2018-11-12T19:12:38.644Z,71.30
2018-11-12T19:15:07.651Z,66.20
2018-11-12T19:17:35.902Z,66.70
2018-11-12T19:20:04.883Z,69.80
2018-11-12T19:22:33.105Z,69.70
2018-11-12T19:25:01.375Z,72.10
2018-11-12T19:27:29.593Z,68.20
2018-11-12T19:29:57.859Z,68.70
2018-11-12T19:32:26.096Z,70.30
2018-11-12T19:34:54.368Z,68.50
2018-11-12T19:37:23.341Z,79.40
2018-11-12T19:39:51.550Z,78.50
2018-11-12T19:42:19.776Z,74.70
2018-11-12T19:44:48.007Z,70.20
2018-11-12T19:47:16.230Z,72.30
2018-11-12T19:49:44.512Z,71.70
2018-11-12T19:52:12.861Z,69.30
2018-11-12T19:54:41.067Z,72.40
2018-11-12T19:57:09.376Z,70.10
2018-11-12T19:59:38.354Z,69.20
2018-11-12T20:02:07.362Z,68.40
2018-11-12T20:04:36.341Z,68.40
2018-11-12T20:07:05.397Z,69.90
2018-11-12T20:09:33.651Z,71.00
2018-11-12T20:12:01.912Z,70.10
2018-11-12T20:14:30.131Z,78.10
2018-11-12T20:16:58.415Z,83.80
2018-11-12T20:19:26.631Z,81.30
2018-11-12T20:21:55.622Z,80.00
2018-11-12T20:24:24.605Z,73.20
2018-11-12T20:26:53.604Z,71.30
2018-11-12T20:29:22.635Z,85.10
2018-11-12T20:31:50.895Z,84.20
2018-11-12T20:34:19.984Z,70.80
2018-11-12T20:36:48.255Z,70.80
2018-11-12T20:39:17.261Z,70.30
2018-11-12T20:41:46.278Z,73.80
2018-11-12T20:44:14.559Z,73.70
2018-11-12T20:46:42.818Z,69.50
2018-11-12T20:49:11.795Z,70.30
2018-11-12T20:51:40.857Z,71.20
2018-11-12T20:54:09.122Z,71.00
2018-11-12T20:56:37.337Z,69.60
2018-11-12T20:59:06.380Z,69.20
2018-11-12T21:01:34.679Z,69.30
2018-11-12T21:04:02.939Z,68.10
2018-11-12T21:06:31.173Z,68.90
2018-11-12T21:09:00.207Z,68.70
2018-11-12T21:11:28.504Z,68.70
2018-11-12T21:13:56.671Z,68.10
2018-11-12T21:16:24.953Z,68.10
2018-11-12T21:18:53.172Z,68.00
2018-11-12T21:21:22.197Z,73.70
2018-11-12T21:23:50.443Z,73.60
2018-11-12T21:26:19.435Z,69.10
2018-11-12T21:28:48.497Z,69.40
2018-11-12T21:31:16.715Z,69.40
2018-11-12T21:33:44.950Z,68.90
2018-11-12T21:36:13.221Z,68.90
2018-11-12T21:38:41.481Z,69.00
2018-11-12T21:41:09.741Z,68.80
2018-11-12T21:43:37.995Z,68.10
2018-11-12T21:46:06.302Z,68.90
2018-11-12T21:48:34.538Z,68.70
2018-11-12T21:51:03.543Z,69.70
2018-11-12T21:53:32.567Z,68.60
2018-11-12T21:56:00.838Z,68.70
2018-11-12T21:58:29.085Z,69.20
2018-11-12T22:00:57.339Z,67.90
2018-11-12T22:03:25.571Z,68.50
2018-11-12T22:05:53.829Z,69.20
2018-11-12T22:08:22.884Z,69.40
2018-11-12T22:10:51.123Z,70.10
2018-11-12T22:13:19.338Z,69.00
2018-11-12T22:15:47.647Z,70.40
2018-11-12T22:18:16.653Z,72.40
2018-11-12T22:20:44.893Z,73.30
2018-11-12T22:23:13.190Z,69.30
2018-11-12T22:25:42.180Z,70.70
2018-11-12T22:28:11.210Z,72.40
2018-11-12T22:30:39.364Z,72.10
2018-11-12T22:33:07.620Z,74.00
2018-11-12T22:35:35.889Z,69.60
2018-11-12T22:38:04.140Z,70.50
2018-11-12T22:40:32.388Z,70.50
2018-11-12T22:43:00.710Z,70.70
2018-11-12T22:45:28.956Z,70.60
2018-11-12T22:47:57.186Z,71.40
2018-11-12T22:50:26.190Z,74.00
2018-11-12T22:52:55.236Z,71.20
2018-11-12T22:55:23.475Z,71.80
2018-11-12T22:57:51.750Z,70.00
2018-11-12T23:00:20.776Z,73.60
2018-11-12T23:02:49.013Z,73.10
2018-11-12T23:05:18.002Z,79.60
2018-11-12T23:07:46.988Z,75.20
2018-11-12T23:10:16.008Z,74.40
2018-11-12T23:12:44.254Z,74.00
2018-11-12T23:15:12.474Z,76.70
2018-11-12T23:17:40.720Z,74.70
2018-11-12T23:20:09.707Z,74.70
2018-11-12T23:22:38.709Z,76.40
2018-11-12T23:25:07.686Z,77.50
2018-11-12T23:27:35.938Z,77.50
2018-11-12T23:30:04.191Z,72.80
2018-11-12T23:32:32.446Z,80.40
2018-11-12T23:35:01.499Z,73.20
2018-11-12T23:37:29.698Z,73.50
2018-11-12T23:39:58.714Z,73.20
2018-11-12T23:42:26.918Z,73.40
2018-11-12T23:44:55.195Z,74.90
2018-11-12T23:47:23.388Z,77.50
2018-11-12T23:49:51.618Z,75.80
2018-11-12T23:52:19.821Z,76.10
2018-11-12T23:54:48.076Z,76.30
2018-11-12T23:57:16.284Z,74.20
2018-11-12T23:59:45.060Z,76.20
